createdAt,value
2023-05-14T00:00:05.576Z,596.00
2023-05-14T00:01:05.611Z,596.00
2023-05-14T00:02:05.642Z,595.00
2023-05-14T00:03:05.667Z,594.00
2023-05-14T00:04:05.764Z,592.00
2023-05-14T00:05:05.714Z,592.00
2023-05-14T00:06:05.698Z,592.00
2023-05-14T00:07:05.726Z,592.00
2023-05-14T00:08:05.759Z,594.00
2023-05-14T00:09:05.767Z,592.00
2023-05-14T00:10:05.791Z,594.00
2023-05-14T00:11:05.842Z,595.00
2023-05-14T00:12:05.846Z,594.00
2023-05-14T00:13:05.866Z,593.00
2023-05-14T00:14:05.880Z,594.00
2023-05-14T00:15:05.917Z,595.00
2023-05-14T00:16:05.964Z,594.00
2023-05-14T00:17:05.928Z,594.00
2023-05-14T00:18:05.986Z,592.00
2023-05-14T00:19:06.108Z,593.00
2023-05-14T00:20:06.000Z,594.00
2023-05-14T00:21:06.019Z,598.00
2023-05-14T00:22:05.980Z,597.00
2023-05-14T00:23:06.014Z,598.00
2023-05-14T00:24:06.025Z,597.00
2023-05-14T00:25:06.017Z,596.00
2023-05-14T00:26:06.026Z,595.00
2023-05-14T00:27:06.048Z,595.00
2023-05-14T00:28:06.061Z,594.00
2023-05-14T00:29:06.102Z,593.00
2023-05-14T00:30:06.134Z,592.00
2023-05-14T00:31:06.106Z,592.00
2023-05-14T00:32:06.090Z,593.00
2023-05-14T00:33:06.166Z,594.00
2023-05-14T00:34:06.144Z,595.00
2023-05-14T00:35:06.164Z,596.00
2023-05-14T00:36:06.173Z,596.00
2023-05-14T00:37:06.171Z,594.00
2023-05-14T00:38:06.260Z,594.00
2023-05-14T00:39:06.193Z,594.00
2023-05-14T00:40:06.254Z,592.00
2023-05-14T00:41:06.232Z,591.00
2023-05-14T00:42:06.220Z,592.00
2023-05-14T00:43:06.230Z,593.00
2023-05-14T00:44:06.258Z,591.00
2023-05-14T00:45:06.235Z,591.00
2023-05-14T00:46:06.246Z,592.00
2023-05-14T00:47:06.340Z,594.00
2023-05-14T00:48:06.338Z,596.00
2023-05-14T00:49:06.339Z,597.00
2023-05-14T00:50:06.342Z,596.00
2023-05-14T00:51:06.429Z,600.00
2023-05-14T00:52:06.430Z,600.00
2023-05-14T00:53:06.475Z,599.00
2023-05-14T00:54:06.537Z,597.00
2023-05-14T00:55:06.577Z,596.00
2023-05-14T00:56:06.580Z,596.00
2023-05-14T00:57:06.629Z,596.00
2023-05-14T00:58:06.618Z,597.00
2023-05-14T00:59:06.659Z,597.00
2023-05-14T01:00:06.672Z,599.00
2023-05-14T01:01:06.820Z,601.00
2023-05-14T01:02:06.763Z,599.00
2023-05-14T01:03:06.877Z,600.00
2023-05-14T01:04:07.018Z,598.00
2023-05-14T01:05:06.886Z,596.00
2023-05-14T01:06:06.942Z,596.00
2023-05-14T01:07:06.940Z,596.00
2023-05-14T01:08:06.991Z,595.00
2023-05-14T01:09:07.048Z,592.00
2023-05-14T01:10:07.067Z,591.00
2023-05-14T01:11:07.086Z,588.00
2023-05-14T01:12:07.103Z,590.00
2023-05-14T01:13:07.062Z,590.00
2023-05-14T01:14:07.058Z,589.00
2023-05-14T01:15:07.080Z,592.00
2023-05-14T01:16:07.109Z,592.00
2023-05-14T01:17:07.030Z,593.00
2023-05-14T01:18:07.109Z,594.00
2023-05-14T01:19:07.083Z,594.00
2023-05-14T01:20:07.080Z,596.00
2023-05-14T01:21:07.067Z,596.00
2023-05-14T01:22:07.053Z,595.00
2023-05-14T01:23:07.088Z,595.00
2023-05-14T01:24:07.046Z,594.00
2023-05-14T01:25:07.079Z,593.00
2023-05-14T01:26:07.061Z,592.00
2023-05-14T01:27:07.086Z,592.00
2023-05-14T01:28:07.089Z,594.00
2023-05-14T01:29:07.131Z,596.00
2023-05-14T01:30:07.085Z,592.00
2023-05-14T01:31:07.101Z,592.00
2023-05-14T01:32:07.182Z,592.00
2023-05-14T01:33:07.215Z,593.00
2023-05-14T01:34:07.140Z,593.00
2023-05-14T01:35:07.149Z,593.00
2023-05-14T01:36:07.134Z,594.00
2023-05-14T01:37:07.116Z,591.00
2023-05-14T01:38:07.151Z,592.00
2023-05-14T01:39:07.122Z,593.00
2023-05-14T01:40:07.141Z,594.00
2023-05-14T01:41:07.159Z,594.00
2023-05-14T01:42:07.218Z,594.00
2023-05-14T01:43:07.224Z,598.00
2023-05-14T01:44:07.213Z,597.00
2023-05-14T01:45:07.195Z,596.00
2023-05-14T01:46:07.338Z,594.00
2023-05-14T01:47:07.249Z,595.00
2023-05-14T01:48:07.268Z,593.00
2023-05-14T01:49:07.285Z,593.00
2023-05-14T01:50:07.279Z,594.00
2023-05-14T01:51:07.286Z,594.00
2023-05-14T01:52:07.296Z,596.00
2023-05-14T01:53:07.327Z,596.00
2023-05-14T01:54:07.330Z,596.00
2023-05-14T01:55:07.326Z,593.00
2023-05-14T01:56:07.303Z,590.00
2023-05-14T01:57:07.325Z,589.00
2023-05-14T01:58:07.367Z,590.00
2023-05-14T01:59:07.361Z,589.00
2023-05-14T02:00:07.375Z,592.00
2023-05-14T02:01:07.404Z,595.00
2023-05-14T02:02:07.404Z,596.00
2023-05-14T02:03:07.445Z,596.00
2023-05-14T02:04:07.493Z,595.00
2023-05-14T02:05:07.432Z,596.00
2023-05-14T02:06:07.441Z,596.00
2023-05-14T02:07:07.437Z,595.00
2023-05-14T02:08:07.440Z,596.00
2023-05-14T02:09:07.846Z,596.00
2023-05-14T02:10:07.423Z,595.00
2023-05-14T02:11:07.421Z,595.00
2023-05-14T02:12:07.454Z,594.00
2023-05-14T02:13:07.475Z,593.00
2023-05-14T02:14:07.429Z,590.00
2023-05-14T02:15:07.433Z,588.00
2023-05-14T02:16:07.464Z,587.00
2023-05-14T02:17:07.473Z,587.00
2023-05-14T02:18:07.490Z,587.00
2023-05-14T02:19:07.507Z,584.00
2023-05-14T02:20:07.458Z,584.00
2023-05-14T02:21:07.488Z,584.00
2023-05-14T02:22:07.448Z,585.00
2023-05-14T02:23:07.440Z,586.00
2023-05-14T02:24:07.447Z,588.00
2023-05-14T02:25:07.473Z,591.00
2023-05-14T02:26:07.457Z,592.00
2023-05-14T02:27:07.473Z,592.00
2023-05-14T02:28:07.482Z,589.00
2023-05-14T02:29:07.483Z,590.00
2023-05-14T02:30:07.521Z,592.00
2023-05-14T02:31:07.559Z,594.00
2023-05-14T02:32:07.503Z,595.00
2023-05-14T02:33:07.550Z,595.00
2023-05-14T02:34:07.497Z,597.00
2023-05-14T02:35:07.506Z,597.00
2023-05-14T02:36:07.512Z,597.00
2023-05-14T02:37:07.513Z,597.00
2023-05-14T02:38:07.529Z,598.00
2023-05-14T02:39:07.511Z,598.00
2023-05-14T02:40:07.500Z,596.00
2023-05-14T02:41:07.506Z,597.00
2023-05-14T02:42:07.483Z,599.00
2023-05-14T02:43:07.469Z,598.00
2023-05-14T02:44:07.505Z,598.00
2023-05-14T02:45:07.493Z,597.00
2023-05-14T02:46:07.504Z,597.00
2023-05-14T02:47:07.592Z,596.00
2023-05-14T02:48:07.564Z,595.00
2023-05-14T02:49:07.532Z,594.00
2023-05-14T02:50:07.482Z,592.00
2023-05-14T02:51:07.484Z,589.00
2023-05-14T02:52:07.494Z,589.00
2023-05-14T02:53:07.477Z,589.00
2023-05-14T02:54:07.566Z,589.00
2023-05-14T02:55:07.457Z,588.00
2023-05-14T02:56:07.483Z,589.00
2023-05-14T02:57:07.479Z,589.00
2023-05-14T02:58:07.451Z,587.00
2023-05-14T02:59:07.453Z,588.00
2023-05-14T03:00:07.482Z,589.00
2023-05-14T03:01:07.487Z,590.00
2023-05-14T03:02:07.591Z,591.00
2023-05-14T03:03:07.479Z,587.00
2023-05-14T03:04:07.483Z,585.00
2023-05-14T03:05:07.477Z,585.00
2023-05-14T03:06:07.489Z,585.00
2023-05-14T03:07:07.441Z,585.00
2023-05-14T03:08:07.439Z,586.00
2023-05-14T03:09:07.433Z,586.00
2023-05-14T03:10:07.433Z,588.00
2023-05-14T03:11:07.416Z,586.00
2023-05-14T03:12:07.416Z,586.00
2023-05-14T03:13:07.416Z,586.00
2023-05-14T03:14:07.399Z,586.00
2023-05-14T03:15:07.432Z,586.00
2023-05-14T03:16:07.404Z,584.00
2023-05-14T03:17:07.465Z,584.00
2023-05-14T03:18:07.421Z,586.00
2023-05-14T03:19:07.549Z,588.00
2023-05-14T03:20:07.409Z,590.00
2023-05-14T03:21:07.368Z,590.00
2023-05-14T03:22:07.356Z,591.00
2023-05-14T03:23:07.360Z,591.00
2023-05-14T03:24:07.421Z,590.00
2023-05-14T03:25:07.357Z,590.00
2023-05-14T03:26:07.373Z,589.00
2023-05-14T03:27:07.398Z,588.00
2023-05-14T03:28:07.346Z,586.00
2023-05-14T03:29:07.374Z,585.00
2023-05-14T03:30:07.361Z,584.00
2023-05-14T03:31:07.419Z,588.00
2023-05-14T03:32:07.340Z,586.00
2023-05-14T03:33:07.422Z,587.00
2023-05-14T03:34:07.350Z,589.00
2023-05-14T03:35:07.357Z,591.00
2023-05-14T03:36:07.376Z,591.00
2023-05-14T03:37:07.372Z,592.00
2023-05-14T03:38:07.368Z,591.00
2023-05-14T03:39:07.358Z,588.00
2023-05-14T03:40:07.352Z,586.00
2023-05-14T03:41:07.349Z,585.00
2023-05-14T03:42:07.332Z,585.00
2023-05-14T03:43:07.356Z,583.00
2023-05-14T03:44:07.356Z,581.00
2023-05-14T03:45:07.358Z,580.00
2023-05-14T03:46:07.349Z,581.00
2023-05-14T03:47:07.328Z,583.00
2023-05-14T03:48:07.397Z,585.00
2023-05-14T03:49:07.413Z,586.00
2023-05-14T03:50:07.343Z,586.00
2023-05-14T03:51:07.351Z,586.00
2023-05-14T03:52:07.891Z,584.00
2023-05-14T03:53:07.320Z,583.00
2023-05-14T03:54:07.310Z,584.00
2023-05-14T03:55:07.323Z,585.00
2023-05-14T03:56:07.289Z,584.00
2023-05-14T03:57:07.331Z,584.00
2023-05-14T03:58:07.309Z,584.00
2023-05-14T03:59:07.312Z,586.00
2023-05-14T04:00:07.322Z,586.00
2023-05-14T04:01:07.304Z,586.00
2023-05-14T04:02:07.333Z,587.00
2023-05-14T04:03:07.398Z,587.00
2023-05-14T04:04:07.414Z,587.00
2023-05-14T04:05:07.309Z,585.00
2023-05-14T04:06:07.281Z,585.00
2023-05-14T04:07:07.297Z,583.00
2023-05-14T04:08:07.290Z,582.00
2023-05-14T04:09:07.292Z,582.00
2023-05-14T04:10:07.287Z,583.00
2023-05-14T04:11:07.293Z,584.00
2023-05-14T04:12:07.258Z,583.00
2023-05-14T04:13:07.301Z,585.00
2023-05-14T04:14:07.266Z,588.00
2023-05-14T04:15:07.302Z,589.00
2023-05-14T04:16:07.430Z,588.00
2023-05-14T04:17:07.276Z,586.00
2023-05-14T04:18:07.294Z,587.00
2023-05-14T04:19:07.351Z,588.00
2023-05-14T04:20:07.250Z,592.00
2023-05-14T04:21:07.258Z,591.00
2023-05-14T04:22:07.250Z,592.00
2023-05-14T04:23:07.270Z,592.00
2023-05-14T04:24:07.270Z,593.00
2023-05-14T04:25:07.269Z,592.00
2023-05-14T04:26:07.267Z,591.00
2023-05-14T04:27:07.224Z,591.00
2023-05-14T04:28:07.265Z,592.00
2023-05-14T04:29:07.242Z,594.00
2023-05-14T04:30:07.234Z,594.00
2023-05-14T04:31:07.221Z,597.00
2023-05-14T04:32:07.364Z,593.00
2023-05-14T04:33:07.243Z,594.00
2023-05-14T04:34:07.243Z,594.00
2023-05-14T04:35:07.191Z,592.00
2023-05-14T04:36:07.220Z,590.00
2023-05-14T04:37:07.215Z,591.00
2023-05-14T04:38:07.226Z,591.00
2023-05-14T04:39:07.213Z,590.00
2023-05-14T04:40:07.236Z,590.00
2023-05-14T04:41:07.242Z,588.00
2023-05-14T04:42:07.216Z,588.00
2023-05-14T04:43:07.210Z,589.00
2023-05-14T04:44:07.240Z,588.00
2023-05-14T04:45:07.220Z,586.00
2023-05-14T04:46:07.251Z,586.00
2023-05-14T04:47:07.205Z,587.00
2023-05-14T04:48:07.262Z,587.00
2023-05-14T04:49:07.290Z,587.00
2023-05-14T04:50:07.213Z,586.00
2023-05-14T04:51:07.351Z,582.00
2023-05-14T04:52:07.195Z,582.00
2023-05-14T04:53:07.206Z,580.00
2023-05-14T04:54:07.276Z,579.00
2023-05-14T04:55:07.219Z,580.00
2023-05-14T04:56:07.223Z,580.00
2023-05-14T04:57:07.218Z,581.00
2023-05-14T04:58:07.246Z,581.00
2023-05-14T04:59:07.207Z,578.00
2023-05-14T05:00:07.211Z,578.00
2023-05-14T05:01:07.300Z,578.00
2023-05-14T05:02:07.212Z,576.00
2023-05-14T05:03:07.315Z,578.00
2023-05-14T05:04:07.268Z,580.00
2023-05-14T05:05:07.194Z,580.00
2023-05-14T05:06:07.239Z,582.00
2023-05-14T05:07:07.236Z,582.00
2023-05-14T05:08:07.192Z,584.00
2023-05-14T05:09:07.199Z,588.00
2023-05-14T05:10:07.211Z,589.00
2023-05-14T05:11:07.234Z,590.00
2023-05-14T05:12:07.219Z,591.00
2023-05-14T05:13:07.261Z,591.00
2023-05-14T05:14:07.285Z,590.00
2023-05-14T05:15:07.256Z,590.00
2023-05-14T05:16:07.297Z,589.00
2023-05-14T05:17:07.232Z,590.00
2023-05-14T05:18:07.245Z,591.00
2023-05-14T05:19:07.361Z,589.00
2023-05-14T05:20:07.234Z,593.00
2023-05-14T05:21:07.281Z,593.00
2023-05-14T05:22:07.250Z,594.00
2023-05-14T05:23:07.291Z,593.00
2023-05-14T05:24:07.261Z,592.00
2023-05-14T05:25:07.274Z,592.00
2023-05-14T05:26:07.236Z,592.00
2023-05-14T05:27:07.256Z,591.00
2023-05-14T05:28:07.260Z,592.00
2023-05-14T05:29:07.241Z,591.00
2023-05-14T05:30:07.241Z,590.00
2023-05-14T05:31:07.435Z,591.00
2023-05-14T05:32:07.250Z,593.00
2023-05-14T05:33:07.323Z,592.00
2023-05-14T05:34:07.229Z,592.00
2023-05-14T05:35:07.251Z,594.00
2023-05-14T05:36:07.212Z,593.00
2023-05-14T05:37:07.246Z,592.00
2023-05-14T05:38:07.235Z,593.00
2023-05-14T05:39:07.189Z,592.00
2023-05-14T05:40:07.271Z,592.00
2023-05-14T05:41:07.222Z,591.00
2023-05-14T05:42:07.212Z,591.00
2023-05-14T05:43:07.217Z,590.00
2023-05-14T05:44:07.181Z,589.00
2023-05-14T05:45:07.230Z,591.00
2023-05-14T05:46:07.274Z,591.00
2023-05-14T05:47:07.227Z,592.00
2023-05-14T05:48:07.282Z,591.00
2023-05-14T05:49:07.245Z,592.00
2023-05-14T05:50:07.209Z,591.00
2023-05-14T05:51:07.195Z,590.00
2023-05-14T05:52:07.202Z,592.00
2023-05-14T05:53:07.181Z,596.00
2023-05-14T05:54:07.199Z,598.00
2023-05-14T05:55:07.216Z,597.00
2023-05-14T05:56:07.243Z,596.00
2023-05-14T05:57:07.196Z,596.00
2023-05-14T05:58:07.193Z,595.00
2023-05-14T05:59:07.223Z,594.00
2023-05-14T06:00:07.367Z,594.00
2023-05-14T06:01:07.201Z,596.00
2023-05-14T06:02:07.300Z,596.00
2023-05-14T06:03:07.346Z,596.00
2023-05-14T06:04:07.212Z,595.00
2023-05-14T06:05:07.270Z,595.00
2023-05-14T06:06:07.245Z,595.00
2023-05-14T06:07:07.212Z,598.00
2023-05-14T06:08:07.224Z,597.00
2023-05-14T06:09:07.230Z,600.00
2023-05-14T06:10:07.243Z,601.00
2023-05-14T06:11:07.231Z,602.00
2023-05-14T06:12:07.244Z,602.00
2023-05-14T06:13:07.235Z,601.00
2023-05-14T06:14:07.246Z,600.00
2023-05-14T06:15:07.252Z,598.00
2023-05-14T06:16:07.327Z,598.00
2023-05-14T06:17:07.263Z,598.00
2023-05-14T06:18:07.264Z,598.00
2023-05-14T06:19:07.307Z,597.00
2023-05-14T06:20:07.225Z,597.00
2023-05-14T06:21:07.233Z,596.00
2023-05-14T06:22:07.220Z,594.00
2023-05-14T06:23:07.245Z,594.00
2023-05-14T06:24:07.243Z,593.00
2023-05-14T06:25:07.260Z,593.00
2023-05-14T06:26:07.304Z,591.00
2023-05-14T06:27:07.239Z,590.00
2023-05-14T06:28:07.235Z,590.00
2023-05-14T06:29:07.240Z,591.00
2023-05-14T06:30:07.248Z,590.00
2023-05-14T06:31:07.215Z,590.00
2023-05-14T06:32:07.279Z,591.00
2023-05-14T06:33:07.297Z,590.00
2023-05-14T06:34:07.223Z,591.00
2023-05-14T06:35:07.212Z,590.00
2023-05-14T06:36:07.238Z,589.00
2023-05-14T06:37:07.213Z,591.00
2023-05-14T06:38:07.232Z,591.00
2023-05-14T06:39:07.200Z,591.00
2023-05-14T06:40:07.208Z,588.00
2023-05-14T06:41:07.199Z,587.00
2023-05-14T06:42:07.202Z,587.00
2023-05-14T06:43:07.176Z,587.00
2023-05-14T06:44:07.180Z,588.00
2023-05-14T06:45:07.205Z,589.00
2023-05-14T06:46:07.177Z,587.00
2023-05-14T06:47:07.199Z,588.00
2023-05-14T06:48:07.265Z,590.00
2023-05-14T06:49:07.209Z,591.00
2023-05-14T06:50:08.385Z,589.00
2023-05-14T06:51:07.168Z,590.00
2023-05-14T06:52:07.176Z,591.00
2023-05-14T06:53:07.153Z,592.00
2023-05-14T06:54:07.220Z,594.00
2023-05-14T06:55:07.184Z,593.00
2023-05-14T06:56:07.172Z,594.00
2023-05-14T06:57:07.159Z,593.00
2023-05-14T06:58:07.179Z,595.00
2023-05-14T06:59:07.197Z,594.00
2023-05-14T07:00:07.154Z,594.00
2023-05-14T07:01:07.177Z,594.00
2023-05-14T07:02:07.164Z,591.00
2023-05-14T07:03:07.229Z,591.00
2023-05-14T07:04:07.212Z,590.00
2023-05-14T07:05:07.131Z,589.00
2023-05-14T07:06:07.152Z,590.00
2023-05-14T07:07:07.130Z,590.00
2023-05-14T07:08:07.125Z,590.00
2023-05-14T07:09:07.163Z,591.00
2023-05-14T07:10:07.158Z,590.00
2023-05-14T07:11:07.170Z,590.00
2023-05-14T07:12:07.162Z,591.00
2023-05-14T07:13:07.139Z,593.00
2023-05-14T07:14:07.140Z,593.00
2023-05-14T07:15:07.128Z,595.00
2023-05-14T07:16:07.169Z,594.00
2023-05-14T07:17:07.244Z,595.00
2023-05-14T07:18:07.236Z,596.00
2023-05-14T07:19:07.241Z,596.00
2023-05-14T07:20:07.204Z,598.00
2023-05-14T07:21:07.230Z,599.00
2023-05-14T07:22:07.219Z,596.00
2023-05-14T07:23:07.216Z,595.00
2023-05-14T07:24:07.209Z,594.00
2023-05-14T07:25:07.204Z,593.00
2023-05-14T07:26:07.237Z,595.00
2023-05-14T07:27:07.266Z,594.00
2023-05-14T07:28:07.232Z,595.00
2023-05-14T07:29:07.257Z,593.00
2023-05-14T07:30:07.256Z,593.00
2023-05-14T07:31:07.310Z,593.00
2023-05-14T07:32:07.252Z,593.00
2023-05-14T07:33:07.314Z,594.00
2023-05-14T07:34:07.383Z,594.00
2023-05-14T07:35:07.271Z,594.00
2023-05-14T07:36:07.314Z,597.00
2023-05-14T07:37:07.320Z,596.00
2023-05-14T07:38:07.344Z,593.00
2023-05-14T07:39:07.352Z,589.00
2023-05-14T07:40:08.026Z,590.00
2023-05-14T07:41:07.431Z,590.00
2023-05-14T07:42:07.497Z,591.00
2023-05-14T07:43:07.520Z,592.00
2023-05-14T07:44:07.557Z,592.00
2023-05-14T07:45:07.555Z,591.00
2023-05-14T07:46:07.583Z,590.00
2023-05-14T07:47:07.793Z,588.00
2023-05-14T07:48:07.863Z,588.00
2023-05-14T07:49:07.713Z,588.00
2023-05-14T07:50:07.755Z,588.00
2023-05-14T07:51:07.814Z,591.00
2023-05-14T07:52:07.822Z,591.00
2023-05-14T07:53:07.889Z,592.00
2023-05-14T07:54:07.894Z,589.00
2023-05-14T07:55:07.940Z,589.00
2023-05-14T07:56:07.982Z,589.00
2023-05-14T07:57:08.053Z,589.00
2023-05-14T07:58:08.125Z,591.00
2023-05-14T07:59:08.168Z,589.00
2023-05-14T08:00:08.178Z,589.00
2023-05-14T08:01:08.283Z,590.00
2023-05-14T08:02:08.317Z,590.00
2023-05-14T08:03:08.443Z,591.00
2023-05-14T08:04:08.550Z,590.00
2023-05-14T08:05:08.501Z,588.00
2023-05-14T08:06:08.596Z,586.00
2023-05-14T08:07:08.599Z,585.00
2023-05-14T08:08:08.688Z,585.00
2023-05-14T08:09:08.727Z,587.00
2023-05-14T08:10:08.798Z,587.00
2023-05-14T08:11:08.924Z,588.00
2023-05-14T08:12:08.921Z,587.00
2023-05-14T08:13:08.970Z,585.00
2023-05-14T08:14:09.043Z,586.00
2023-05-14T08:15:09.117Z,585.00
2023-05-14T08:16:09.176Z,584.00
2023-05-14T08:17:09.283Z,585.00
2023-05-14T08:18:09.328Z,586.00
2023-05-14T08:19:09.402Z,584.00
2023-05-14T08:20:09.411Z,586.00
2023-05-14T08:21:09.495Z,587.00
2023-05-14T08:22:09.518Z,586.00
2023-05-14T08:23:09.588Z,584.00
2023-05-14T08:24:09.671Z,584.00
2023-05-14T08:25:09.740Z,583.00
2023-05-14T08:26:09.764Z,583.00
2023-05-14T08:27:09.866Z,585.00
2023-05-14T08:28:09.931Z,586.00
2023-05-14T08:29:10.760Z,586.00
2023-05-14T08:30:10.028Z,585.00
2023-05-14T08:31:10.118Z,585.00
2023-05-14T08:32:22.057Z,584.00
2023-05-14T08:33:11.180Z,582.00
2023-05-14T08:34:10.131Z,583.00
2023-05-14T08:35:10.099Z,585.00
2023-05-14T08:36:10.123Z,584.00
2023-05-14T08:37:10.114Z,585.00
2023-05-14T08:38:10.091Z,586.00
2023-05-14T08:39:10.104Z,587.00
2023-05-14T08:40:10.086Z,589.00
2023-05-14T08:41:10.100Z,590.00
2023-05-14T08:42:10.058Z,588.00
2023-05-14T08:43:10.055Z,587.00
2023-05-14T08:44:10.134Z,586.00
2023-05-14T08:45:10.213Z,585.00
2023-05-14T08:46:10.209Z,585.00
2023-05-14T08:47:10.237Z,587.00
2023-05-14T08:48:10.294Z,588.00
2023-05-14T08:49:10.376Z,589.00
2023-05-14T08:50:10.325Z,586.00
2023-05-14T08:51:10.362Z,587.00
2023-05-14T08:52:10.363Z,587.00
2023-05-14T08:53:10.411Z,590.00
2023-05-14T08:54:10.427Z,591.00
2023-05-14T08:55:10.449Z,591.00
2023-05-14T08:56:10.483Z,592.00
2023-05-14T08:57:10.475Z,592.00
2023-05-14T08:58:10.513Z,593.00
2023-05-14T08:59:10.512Z,595.00
2023-05-14T09:00:10.516Z,596.00
2023-05-14T09:01:10.532Z,598.00
2023-05-14T09:02:10.663Z,599.00
2023-05-14T09:03:10.619Z,600.00
2023-05-14T09:04:10.733Z,600.00
2023-05-14T09:05:10.633Z,600.00
2023-05-14T09:06:10.636Z,600.00
2023-05-14T09:07:10.644Z,601.00
2023-05-14T09:08:10.659Z,599.00
2023-05-14T09:09:10.663Z,601.00
2023-05-14T09:10:10.710Z,601.00
2023-05-14T09:11:10.682Z,601.00
2023-05-14T09:12:10.677Z,600.00
2023-05-14T09:13:10.714Z,601.00
2023-05-14T09:14:10.693Z,601.00
2023-05-14T09:15:10.698Z,600.00
2023-05-14T09:16:10.682Z,600.00
2023-05-14T09:17:10.701Z,599.00
2023-05-14T09:18:10.718Z,600.00
2023-05-14T09:19:10.809Z,600.00
2023-05-14T09:20:10.698Z,597.00
2023-05-14T09:21:10.655Z,596.00
2023-05-14T09:22:10.695Z,597.00
2023-05-14T09:23:10.689Z,593.00
2023-05-14T09:24:10.702Z,592.00
2023-05-14T09:25:10.713Z,592.00
2023-05-14T09:26:10.703Z,592.00
2023-05-14T09:27:10.712Z,592.00
2023-05-14T09:28:10.735Z,592.00
2023-05-14T09:29:10.741Z,595.00
2023-05-14T09:30:10.746Z,596.00
2023-05-14T09:31:10.763Z,597.00
2023-05-14T09:32:10.711Z,597.00
2023-05-14T09:33:10.786Z,597.00
2023-05-14T09:34:10.721Z,596.00
2023-05-14T09:35:10.738Z,595.00
2023-05-14T09:36:10.712Z,594.00
2023-05-14T09:37:10.719Z,592.00
2023-05-14T09:38:10.777Z,593.00
2023-05-14T09:39:10.769Z,593.00
2023-05-14T09:40:10.774Z,592.00
2023-05-14T09:41:10.769Z,592.00
2023-05-14T09:42:10.794Z,595.00
2023-05-14T09:43:10.779Z,597.00
2023-05-14T09:44:10.778Z,596.00
2023-05-14T09:45:10.812Z,595.00
2023-05-14T09:46:10.756Z,596.00
2023-05-14T09:47:10.800Z,596.00
2023-05-14T09:48:11.019Z,596.00
2023-05-14T09:49:10.825Z,596.00
2023-05-14T09:50:10.812Z,596.00
2023-05-14T09:51:10.814Z,597.00
2023-05-14T09:52:10.789Z,597.00
2023-05-14T09:53:10.818Z,595.00
2023-05-14T09:54:10.844Z,594.00
2023-05-14T09:55:10.819Z,595.00
2023-05-14T09:56:10.855Z,594.00
2023-05-14T09:57:10.858Z,593.00
2023-05-14T09:58:10.855Z,595.00
2023-05-14T09:59:10.884Z,596.00
2023-05-14T10:00:10.877Z,596.00
2023-05-14T10:01:10.957Z,598.00
2023-05-14T10:02:10.927Z,599.00
2023-05-14T10:03:10.978Z,601.00
2023-05-14T10:04:10.954Z,601.00
2023-05-14T10:05:10.962Z,599.00
2023-05-14T10:06:10.966Z,601.00
2023-05-14T10:07:10.965Z,601.00
2023-05-14T10:08:10.972Z,604.00
2023-05-14T10:09:11.009Z,605.00
2023-05-14T10:10:11.020Z,604.00
2023-05-14T10:11:11.032Z,602.00
2023-05-14T10:12:11.064Z,604.00
2023-05-14T10:13:11.071Z,603.00
2023-05-14T10:14:11.073Z,602.00
2023-05-14T10:15:11.133Z,601.00
2023-05-14T10:16:11.118Z,601.00
2023-05-14T10:17:11.224Z,598.00
2023-05-14T10:18:11.199Z,598.00
2023-05-14T10:19:11.234Z,598.00
2023-05-14T10:20:11.197Z,599.00
2023-05-14T10:21:11.223Z,598.00
2023-05-14T10:22:11.221Z,597.00
2023-05-14T10:23:11.204Z,595.00
2023-05-14T10:24:11.257Z,595.00
2023-05-14T10:25:11.269Z,593.00
2023-05-14T10:26:11.266Z,592.00
2023-05-14T10:27:11.312Z,593.00
2023-05-14T10:28:11.331Z,593.00
2023-05-14T10:29:11.342Z,591.00
2023-05-14T10:30:11.366Z,587.00
2023-05-14T10:31:11.398Z,585.00
2023-05-14T10:32:11.374Z,585.00
2023-05-14T10:33:11.553Z,587.00
2023-05-14T10:34:11.439Z,588.00
2023-05-14T10:35:11.439Z,588.00
2023-05-14T10:36:11.471Z,591.00
2023-05-14T10:37:11.498Z,590.00
2023-05-14T10:38:11.489Z,590.00
2023-05-14T10:39:11.530Z,589.00
2023-05-14T10:40:11.565Z,588.00
2023-05-14T10:41:11.575Z,590.00
2023-05-14T10:42:11.620Z,588.00
2023-05-14T10:43:11.631Z,589.00
2023-05-14T10:44:11.653Z,589.00
2023-05-14T10:45:11.665Z,591.00
2023-05-14T10:46:11.711Z,591.00
2023-05-14T10:47:11.701Z,592.00
2023-05-14T10:48:11.734Z,591.00
2023-05-14T10:49:11.740Z,592.00
2023-05-14T10:50:11.796Z,592.00
2023-05-14T10:51:11.863Z,593.00
2023-05-14T10:52:11.789Z,593.00
2023-05-14T10:53:11.843Z,592.00
2023-05-14T10:54:11.850Z,592.00
2023-05-14T10:55:11.913Z,591.00
2023-05-14T10:56:11.904Z,591.00
2023-05-14T10:57:11.924Z,592.00
2023-05-14T10:58:11.943Z,593.00
2023-05-14T10:59:11.992Z,595.00
2023-05-14T11:00:11.998Z,595.00
2023-05-14T11:01:12.175Z,596.00
2023-05-14T11:02:12.125Z,594.00
2023-05-14T11:03:12.110Z,595.00
2023-05-14T11:04:12.245Z,596.00
2023-05-14T11:05:12.139Z,595.00
2023-05-14T11:06:12.162Z,597.00
2023-05-14T11:07:12.231Z,597.00
2023-05-14T11:08:12.236Z,596.00
2023-05-14T11:09:12.246Z,596.00
2023-05-14T11:10:12.301Z,597.00
2023-05-14T11:11:12.283Z,596.00
2023-05-14T11:12:12.300Z,596.00
2023-05-14T11:13:12.352Z,595.00
2023-05-14T11:14:12.346Z,595.00
2023-05-14T11:15:12.419Z,594.00
2023-05-14T11:16:22.963Z,594.00
2023-05-14T11:17:13.463Z,593.00
2023-05-14T11:18:12.417Z,591.00
2023-05-14T11:19:12.548Z,590.00
2023-05-14T11:20:12.436Z,588.00
2023-05-14T11:21:12.397Z,589.00
2023-05-14T11:22:12.358Z,589.00
2023-05-14T11:23:12.387Z,591.00
2023-05-14T11:24:12.370Z,593.00
2023-05-14T11:25:12.383Z,595.00
2023-05-14T11:26:12.347Z,597.00
2023-05-14T11:27:12.328Z,597.00
2023-05-14T11:28:12.348Z,596.00
2023-05-14T11:29:12.354Z,592.00
2023-05-14T11:30:12.330Z,592.00
2023-05-14T11:31:12.334Z,594.00
2023-05-14T11:32:12.398Z,592.00
2023-05-14T11:33:12.425Z,589.00
2023-05-14T11:34:12.395Z,591.00
2023-05-14T11:35:12.417Z,592.00
2023-05-14T11:36:12.424Z,594.00
2023-05-14T11:37:12.439Z,595.00
2023-05-14T11:38:12.475Z,593.00
2023-05-14T11:39:12.515Z,593.00
2023-05-14T11:40:12.541Z,593.00
2023-05-14T11:41:12.582Z,592.00
2023-05-14T11:42:12.605Z,594.00
2023-05-14T11:43:12.622Z,597.00
2023-05-14T11:44:12.651Z,597.00
2023-05-14T11:45:12.772Z,596.00
2023-05-14T11:46:12.733Z,595.00
2023-05-14T11:47:12.746Z,596.00
2023-05-14T11:48:12.772Z,597.00
2023-05-14T11:49:12.752Z,598.00
2023-05-14T11:50:12.793Z,598.00
2023-05-14T11:51:12.852Z,597.00
2023-05-14T11:52:12.835Z,596.00
2023-05-14T11:53:12.877Z,595.00
2023-05-14T11:54:12.933Z,593.00
2023-05-14T11:55:12.962Z,592.00
2023-05-14T11:56:12.976Z,593.00
2023-05-14T11:57:12.997Z,593.00
2023-05-14T11:58:13.039Z,595.00
2023-05-14T11:59:13.075Z,595.00
2023-05-14T12:00:13.113Z,595.00
2023-05-14T12:01:13.134Z,595.00
2023-05-14T12:02:13.256Z,596.00
2023-05-14T12:03:13.234Z,594.00
2023-05-14T12:04:13.210Z,593.00
2023-05-14T12:05:13.302Z,592.00
2023-05-14T12:06:13.231Z,591.00
2023-05-14T12:07:13.280Z,589.00
2023-05-14T12:08:13.291Z,589.00
2023-05-14T12:09:13.329Z,588.00
2023-05-14T12:10:13.394Z,588.00
2023-05-14T12:11:13.401Z,589.00
2023-05-14T12:12:13.406Z,588.00
2023-05-14T12:13:13.469Z,590.00
2023-05-14T12:14:13.479Z,591.00
2023-05-14T12:15:13.582Z,589.00
2023-05-14T12:16:13.609Z,587.00
2023-05-14T12:17:13.592Z,584.00
2023-05-14T12:18:23.404Z,583.00
2023-05-14T12:19:14.663Z,582.00
2023-05-14T12:20:13.620Z,583.00
2023-05-14T12:21:13.650Z,583.00
2023-05-14T12:22:13.605Z,584.00
2023-05-14T12:23:13.591Z,585.00
2023-05-14T12:24:13.590Z,584.00
2023-05-14T12:25:13.734Z,586.00
2023-05-14T12:26:13.598Z,586.00
2023-05-14T12:27:13.558Z,584.00
2023-05-14T12:28:13.583Z,585.00